Benchland, Montana
Current Conditions -  °F | °C
As of 4:54 PM on Friday 24 Oct 2014 (Local Time) from KLWT Reporting Station
Overcast Overcast  
Wind Chill: 54°   Ceiling: 6000
Heat Index: 54°   Visibility: 10mi
Dew Point: 38°   Wind: 0mph
Humidity: 55%   Direction: NA
Pressure: 30.07"   Gusts: NA
Location:  47.1096°N, 109.884°W
Report Text: KLWT 242254Z AUTO 00000KT 10SM OVC060 12/03 A3007 RMK AO2 SLP173 T01220033
Loading
Personal Weather Stations






























Interactive Weather Map
Tropical Storm Tracking
New forecast layout! Learn more

10-Day Weather Forecast

Advertisements
Track Severe Weather on mobile